createdAt,value
2023-01-05T00:00:43.993Z,39.17
2023-01-05T00:05:49.132Z,36.92
2023-01-05T00:11:10.580Z,30.60
2023-01-05T00:16:33.670Z,28.27
2023-01-05T00:21:56.435Z,42.10
2023-01-05T00:27:00.313Z,40.55
2023-01-05T00:32:04.107Z,39.88
2023-01-05T00:37:09.243Z,44.60
2023-01-05T00:42:13.016Z,37.88
2023-01-05T00:47:16.912Z,42.85
2023-01-05T00:52:22.178Z,36.63
2023-01-05T00:57:25.990Z,47.40
2023-01-05T01:02:30.672Z,39.03
2023-01-05T01:07:35.864Z,39.67
2023-01-05T01:12:44.630Z,44.47
2023-01-05T01:17:48.428Z,48.30
2023-01-05T01:22:53.491Z,55.92
2023-01-05T01:27:57.307Z,46.97
2023-01-05T01:33:01.452Z,41.10
2023-01-05T01:38:06.590Z,44.15
2023-01-05T01:43:14.855Z,44.17
2023-01-05T01:48:19.958Z,39.38
2023-01-05T01:53:28.965Z,37.70
2023-01-05T01:58:33.719Z,41.53
2023-01-05T02:03:38.811Z,46.90
2023-01-05T02:08:44.040Z,47.90
2023-01-05T02:14:03.084Z,40.90
2023-01-05T02:19:48.485Z,39.92
2023-01-05T02:25:13.103Z,54.63
2023-01-05T02:30:59.530Z,50.10
2023-01-05T02:36:13.203Z,33.92
2023-01-05T02:41:24.156Z,43.30
2023-01-05T02:46:31.864Z,49.85
2023-01-05T02:51:40.000Z,49.95
2023-01-05T02:56:51.162Z,51.35
2023-01-05T03:02:00.366Z,33.70
2023-01-05T03:07:07.051Z,38.63
2023-01-05T03:12:35.674Z,41.10
2023-01-05T03:17:45.342Z,39.47
2023-01-05T03:23:09.405Z,47.42
2023-01-05T03:28:36.625Z,44.45
2023-01-05T03:34:04.204Z,46.97
2023-01-05T03:39:10.103Z,34.50
2023-01-05T03:44:15.151Z,56.25
2023-01-05T03:49:21.511Z,39.00
2023-01-05T03:54:26.602Z,49.40
2023-01-05T03:59:30.495Z,48.53
2023-01-05T04:04:36.556Z,53.22
2023-01-05T04:09:42.065Z,46.83
2023-01-05T04:14:46.366Z,55.33
2023-01-05T04:19:51.543Z,44.17
2023-01-05T04:24:56.716Z,49.85
2023-01-05T04:30:00.568Z,52.20
2023-01-05T04:35:11.264Z,54.80
2023-01-05T04:40:16.048Z,49.20
2023-01-05T04:45:20.413Z,50.95
2023-01-05T04:50:27.523Z,45.90
2023-01-05T04:55:31.932Z,54.25
2023-01-05T05:00:36.060Z,44.03
2023-01-05T05:05:43.382Z,59.20
2023-01-05T05:10:49.046Z,48.58
2023-01-05T05:15:52.915Z,46.08
2023-01-05T05:20:58.126Z,51.60
2023-01-05T05:26:02.270Z,51.78
2023-01-05T05:31:06.408Z,51.97
2023-01-05T05:36:11.730Z,60.45
2023-01-05T05:41:15.508Z,54.70
2023-01-05T05:46:19.277Z,47.88
2023-01-05T05:51:24.791Z,43.10
2023-01-05T05:56:28.529Z,57.10
2023-01-05T06:01:32.436Z,47.75
2023-01-05T06:06:37.637Z,46.80
2023-01-05T06:11:41.357Z,49.00
2023-01-05T06:16:45.796Z,63.47
2023-01-05T06:21:51.110Z,40.42
2023-01-05T06:26:54.914Z,49.22
2023-01-05T06:31:58.797Z,52.53
2023-01-05T06:37:06.383Z,56.13
2023-01-05T06:42:10.187Z,47.27
2023-01-05T06:47:14.249Z,60.60
2023-01-05T06:52:19.381Z,59.17
2023-01-05T06:57:23.434Z,51.00
2023-01-05T07:02:27.220Z,67.80
2023-01-05T07:07:32.410Z,53.15
2023-01-05T07:12:36.241Z,60.65
2023-01-05T07:17:39.977Z,50.30
2023-01-05T07:22:45.092Z,51.30
2023-01-05T07:27:52.179Z,63.30
2023-01-05T07:32:59.494Z,61.65
2023-01-05T07:38:04.581Z,64.60
2023-01-05T07:43:08.519Z,52.88
2023-01-05T07:48:12.268Z,63.17
2023-01-05T07:53:17.357Z,54.13
2023-01-05T07:58:21.102Z,62.97
2023-01-05T08:03:25.287Z,48.83
2023-01-05T08:08:30.564Z,63.47
2023-01-05T08:13:51.870Z,72.60
2023-01-05T08:18:55.695Z,47.42
2023-01-05T08:24:01.111Z,56.10
2023-01-05T08:29:04.818Z,62.30
2023-01-05T08:34:08.608Z,52.33
2023-01-05T08:39:14.557Z,64.75
2023-01-05T08:44:18.838Z,54.67
2023-01-05T08:49:23.471Z,49.38
2023-01-05T08:54:28.944Z,54.20
2023-01-05T08:59:32.681Z,55.80
2023-01-05T09:04:36.604Z,58.58
2023-01-05T09:09:41.780Z,54.97
2023-01-05T09:14:45.619Z,46.78
2023-01-05T09:19:49.416Z,54.35
2023-01-05T09:24:54.564Z,56.22
2023-01-05T09:29:58.290Z,55.35
2023-01-05T09:35:02.062Z,54.17
2023-01-05T09:40:08.553Z,56.08
2023-01-05T09:45:15.617Z,55.65
2023-01-05T09:50:22.097Z,59.03
2023-01-05T09:55:31.553Z,63.87
2023-01-05T10:00:39.697Z,52.17
2023-01-05T10:05:46.639Z,56.85
2023-01-05T10:11:10.777Z,52.17
2023-01-05T10:16:18.500Z,59.28
2023-01-05T10:21:30.677Z,55.92
2023-01-05T10:27:23.113Z,60.85
2023-01-05T10:32:18.479Z,63.97
2023-01-05T10:37:40.890Z,53.28
2023-01-05T10:43:05.174Z,50.83
2023-01-05T10:48:14.998Z,63.13
2023-01-05T10:53:21.943Z,58.70
2023-01-05T10:58:29.799Z,68.15
2023-01-05T11:04:23.938Z,62.25
2023-01-05T11:09:21.855Z,65.18
2023-01-05T11:14:29.801Z,47.47
2023-01-05T11:19:37.744Z,53.15
2023-01-05T11:24:41.528Z,58.42
2023-01-05T11:29:46.682Z,58.33
2023-01-05T11:34:51.762Z,62.22
2023-01-05T11:39:57.643Z,67.07
2023-01-05T11:45:05.601Z,59.08
2023-01-05T11:50:21.413Z,58.13
2023-01-05T11:55:31.736Z,59.60
2023-01-05T12:00:54.077Z,54.42
2023-01-05T12:06:01.625Z,46.42
2023-01-05T12:11:15.081Z,53.17
2023-01-05T12:16:41.720Z,53.42
2023-01-05T12:22:02.155Z,48.13
2023-01-05T12:27:17.924Z,45.35
2023-01-05T12:38:23.948Z,50.25
2023-01-05T12:43:40.952Z,43.90
2023-01-05T12:48:49.014Z,40.88
2023-01-05T12:53:58.286Z,57.92
2023-01-05T12:59:12.189Z,48.95
2023-01-05T13:04:46.293Z,37.03
2023-01-05T13:10:02.645Z,54.47
2023-01-05T13:15:17.827Z,74.93
2023-01-05T13:20:31.513Z,77.45
2023-01-05T13:25:43.140Z,46.85
2023-01-05T13:30:58.723Z,41.17
2023-01-05T13:36:21.556Z,66.70
2023-01-05T13:41:35.966Z,49.30
2023-01-05T13:46:53.555Z,69.47
2023-01-05T13:52:00.178Z,56.05
2023-01-05T13:57:09.194Z,49.20
2023-01-05T14:02:30.089Z,53.28
2023-01-05T14:07:41.661Z,51.80
2023-01-05T14:12:48.356Z,49.42
2023-01-05T14:17:53.853Z,39.08
2023-01-05T14:22:59.608Z,40.53
2023-01-05T14:28:21.939Z,48.05
2023-01-05T14:33:25.772Z,51.50
2023-01-05T14:38:31.430Z,52.20
2023-01-05T14:43:36.658Z,52.40
2023-01-05T14:48:42.826Z,52.45
2023-01-05T14:53:50.008Z,76.97
2023-01-05T14:59:07.507Z,42.72
2023-01-05T15:04:16.507Z,47.27
2023-01-05T15:09:38.246Z,50.15
2023-01-05T15:15:16.964Z,63.17
2023-01-05T15:20:52.108Z,57.00
2023-01-05T15:26:26.133Z,48.33
2023-01-05T15:31:36.962Z,57.13
2023-01-05T15:36:47.574Z,58.65
2023-01-05T15:41:52.429Z,74.05
2023-01-05T15:46:57.702Z,47.35
2023-01-05T15:52:02.116Z,57.45
2023-01-05T15:57:21.119Z,70.00
2023-01-05T16:02:28.278Z,56.63
2023-01-05T16:07:32.551Z,70.25
2023-01-05T16:12:37.209Z,53.42
2023-01-05T16:17:42.712Z,64.93
2023-01-05T16:22:52.746Z,63.20
2023-01-05T16:28:03.444Z,48.10
2023-01-05T16:33:23.571Z,48.63
2023-01-05T16:38:28.646Z,48.58
2023-01-05T16:43:35.417Z,74.45
2023-01-05T16:48:49.755Z,53.03
2023-01-05T16:53:56.856Z,60.50
2023-01-05T16:59:01.272Z,51.00
2023-01-05T17:04:13.512Z,66.45
2023-01-05T17:09:21.534Z,46.20
2023-01-05T17:14:27.364Z,47.38
2023-01-05T17:19:35.887Z,52.50
2023-01-05T17:24:40.210Z,43.63
2023-01-05T17:29:44.004Z,45.47
2023-01-05T17:34:49.201Z,47.58
2023-01-05T17:39:52.970Z,44.15
2023-01-05T17:44:56.822Z,53.42
2023-01-05T17:50:01.968Z,55.25
2023-01-05T17:55:06.495Z,48.25
2023-01-05T18:00:13.325Z,52.38
2023-01-05T18:05:19.668Z,45.67
2023-01-05T18:10:26.896Z,47.88
2023-01-05T18:15:32.833Z,43.55
2023-01-05T18:20:40.312Z,49.08
2023-01-05T18:25:44.162Z,41.97
2023-01-05T18:30:48.412Z,42.22
2023-01-05T18:40:58.782Z,38.45
2023-01-05T18:46:03.527Z,35.75
2023-01-05T18:51:09.627Z,30.37
2023-01-05T18:56:14.910Z,25.40
2023-01-05T19:01:20.409Z,24.73
2023-01-05T19:06:26.730Z,27.00
2023-01-05T19:11:30.731Z,17.30
2023-01-05T19:16:36.341Z,11.35
2023-01-05T19:21:43.041Z,14.75
2023-01-05T19:26:48.819Z,14.30
2023-01-05T19:31:52.591Z,13.60
2023-01-05T19:36:57.707Z,12.82
2023-01-05T19:42:01.511Z,14.18
2023-01-05T19:47:05.355Z,16.37
2023-01-05T19:52:10.636Z,7.97
2023-01-05T19:57:14.708Z,11.45
2023-01-05T20:02:18.578Z,7.00
2023-01-05T20:07:23.809Z,10.32
2023-01-05T20:12:27.711Z,14.40
2023-01-05T20:17:33.524Z,12.57
2023-01-05T20:22:38.766Z,15.27
2023-01-05T20:27:42.621Z,12.98
2023-01-05T20:32:46.388Z,17.75
2023-01-05T20:37:51.510Z,17.85
2023-01-05T20:42:55.268Z,21.27
2023-01-05T20:47:59.099Z,19.92
2023-01-05T20:53:04.213Z,25.55
2023-01-05T20:58:07.998Z,23.00
2023-01-05T21:03:11.823Z,20.05
2023-01-05T21:08:17.052Z,21.62
2023-01-05T21:13:31.292Z,20.70
2023-01-05T21:18:36.682Z,26.83
2023-01-05T21:23:41.918Z,19.17
2023-01-05T21:28:46.617Z,15.95
2023-01-05T21:33:50.943Z,16.92
2023-01-05T21:39:00.935Z,16.92
2023-01-05T21:44:08.192Z,15.73
2023-01-05T21:49:13.013Z,10.63
2023-01-05T21:54:35.893Z,12.63
2023-01-05T21:59:40.010Z,12.40
2023-01-05T22:04:44.631Z,16.17
2023-01-05T22:09:49.835Z,12.77
2023-01-05T22:14:53.789Z,10.18
2023-01-05T22:19:57.714Z,27.25
2023-01-05T22:25:02.861Z,15.85
2023-01-05T22:30:07.987Z,15.32
2023-01-05T22:35:11.745Z,14.35
2023-01-05T22:40:17.369Z,7.40
2023-01-05T22:45:21.167Z,12.25
2023-01-05T22:50:24.928Z,8.00
2023-01-05T22:55:30.055Z,10.27
2023-01-05T23:00:33.813Z,9.10
2023-01-05T23:05:39.311Z,14.98
2023-01-05T23:10:44.421Z,7.95
2023-01-05T23:15:54.437Z,11.82
2023-01-05T23:21:00.711Z,11.43
2023-01-05T23:26:10.172Z,16.58
2023-01-05T23:31:16.204Z,10.98
2023-01-05T23:36:21.483Z,7.97
2023-01-05T23:41:26.552Z,14.07
2023-01-05T23:46:30.321Z,9.88
2023-01-05T23:51:34.187Z,24.15
2023-01-05T23:56:39.383Z,13.88
